sensor_id;sensor_type;location;lat;lon;timestamp;temperature;humidity
18085;DHT22;9169;44.492;11.372;2023-08-06T00:00:42;22.60;52.00
18085;DHT22;9169;44.492;11.372;2023-08-06T00:03:10;22.60;52.00
18085;DHT22;9169;44.492;11.372;2023-08-06T00:05:41;22.60;52.10
18085;DHT22;9169;44.492;11.372;2023-08-06T00:08:10;22.70;52.10
18085;DHT22;9169;44.492;11.372;2023-08-06T00:10:39;22.60;52.00
18085;DHT22;9169;44.492;11.372;2023-08-06T00:13:08;22.60;52.00
18085;DHT22;9169;44.492;11.372;2023-08-06T00:15:37;22.60;51.90
18085;DHT22;9169;44.492;11.372;2023-08-06T00:18:07;22.60;51.90
18085;DHT22;9169;44.492;11.372;2023-08-06T00:20:38;22.70;52.00
18085;DHT22;9169;44.492;11.372;2023-08-06T00:23:07;22.60;51.80
18085;DHT22;9169;44.492;11.372;2023-08-06T00:25:36;22.60;51.70
18085;DHT22;9169;44.492;11.372;2023-08-06T00:28:04;22.60;51.60
18085;DHT22;9169;44.492;11.372;2023-08-06T00:30:33;22.60;51.70
18085;DHT22;9169;44.492;11.372;2023-08-06T00:33:02;22.60;51.60
18085;DHT22;9169;44.492;11.372;2023-08-06T00:35:33;22.60;51.50
18085;DHT22;9169;44.492;11.372;2023-08-06T00:38:01;22.60;51.40
18085;DHT22;9169;44.492;11.372;2023-08-06T00:40:32;22.60;51.40
18085;DHT22;9169;44.492;11.372;2023-08-06T00:43:01;22.60;51.30
18085;DHT22;9169;44.492;11.372;2023-08-06T00:45:30;22.60;51.20
18085;DHT22;9169;44.492;11.372;2023-08-06T00:48:02;22.60;51.20
18085;DHT22;9169;44.492;11.372;2023-08-06T00:50:34;22.60;51.20
18085;DHT22;9169;44.492;11.372;2023-08-06T00:53:03;22.60;51.20
18085;DHT22;9169;44.492;11.372;2023-08-06T00:55:32;22.50;51.10
18085;DHT22;9169;44.492;11.372;2023-08-06T00:58:01;22.50;51.10
18085;DHT22;9169;44.492;11.372;2023-08-06T01:00:30;22.50;51.10
18085;DHT22;9169;44.492;11.372;2023-08-06T01:02:59;22.40;51.10
18085;DHT22;9169;44.492;11.372;2023-08-06T01:05:28;22.40;51.20
18085;DHT22;9169;44.492;11.372;2023-08-06T01:08:12;22.40;51.20
18085;DHT22;9169;44.492;11.372;2023-08-06T01:10:55;22.40;51.20
18085;DHT22;9169;44.492;11.372;2023-08-06T01:13:31;22.40;51.20
18085;DHT22;9169;44.492;11.372;2023-08-06T01:16:01;22.40;51.10
18085;DHT22;9169;44.492;11.372;2023-08-06T01:18:33;22.40;51.00
18085;DHT22;9169;44.492;11.372;2023-08-06T01:21:03;22.40;51.00
18085;DHT22;9169;44.492;11.372;2023-08-06T01:23:31;22.30;50.90
18085;DHT22;9169;44.492;11.372;2023-08-06T01:26:10;22.30;50.90
18085;DHT22;9169;44.492;11.372;2023-08-06T01:28:48;22.30;51.00
18085;DHT22;9169;44.492;11.372;2023-08-06T01:31:24;22.30;51.10
18085;DHT22;9169;44.492;11.372;2023-08-06T01:33:56;22.40;51.10
18085;DHT22;9169;44.492;11.372;2023-08-06T01:36:28;22.40;51.10
18085;DHT22;9169;44.492;11.372;2023-08-06T01:38:59;22.40;51.10
18085;DHT22;9169;44.492;11.372;2023-08-06T01:41:28;22.40;51.10
18085;DHT22;9169;44.492;11.372;2023-08-06T01:43:57;22.40;51.20
18085;DHT22;9169;44.492;11.372;2023-08-06T01:46:26;22.40;51.30
18085;DHT22;9169;44.492;11.372;2023-08-06T01:48:54;22.40;51.30
18085;DHT22;9169;44.492;11.372;2023-08-06T01:51:23;22.40;51.40
18085;DHT22;9169;44.492;11.372;2023-08-06T01:53:53;22.40;51.20
18085;DHT22;9169;44.492;11.372;2023-08-06T01:56:22;22.40;51.20
18085;DHT22;9169;44.492;11.372;2023-08-06T01:58:50;22.40;51.10
18085;DHT22;9169;44.492;11.372;2023-08-06T02:01:19;22.30;51.00
18085;DHT22;9169;44.492;11.372;2023-08-06T02:03:47;22.30;51.00
18085;DHT22;9169;44.492;11.372;2023-08-06T02:06:16;22.30;51.10
18085;DHT22;9169;44.492;11.372;2023-08-06T02:08:45;22.30;51.40
18085;DHT22;9169;44.492;11.372;2023-08-06T02:11:16;22.30;51.40
18085;DHT22;9169;44.492;11.372;2023-08-06T02:13:46;22.20;51.30
18085;DHT22;9169;44.492;11.372;2023-08-06T02:16:18;22.20;51.20
18085;DHT22;9169;44.492;11.372;2023-08-06T02:18:47;22.30;51.20
18085;DHT22;9169;44.492;11.372;2023-08-06T02:21:24;22.30;51.30
18085;DHT22;9169;44.492;11.372;2023-08-06T02:23:54;22.30;51.20
18085;DHT22;9169;44.492;11.372;2023-08-06T02:26:24;22.30;51.20
18085;DHT22;9169;44.492;11.372;2023-08-06T02:28:55;22.30;51.30
18085;DHT22;9169;44.492;11.372;2023-08-06T02:31:24;22.30;51.30
18085;DHT22;9169;44.492;11.372;2023-08-06T02:33:53;22.30;51.40
18085;DHT22;9169;44.492;11.372;2023-08-06T02:36:22;22.30;51.50
18085;DHT22;9169;44.492;11.372;2023-08-06T02:38:51;22.30;51.40
18085;DHT22;9169;44.492;11.372;2023-08-06T02:41:19;22.30;51.50
18085;DHT22;9169;44.492;11.372;2023-08-06T02:43:49;22.30;51.50
18085;DHT22;9169;44.492;11.372;2023-08-06T02:46:18;22.30;51.50
18085;DHT22;9169;44.492;11.372;2023-08-06T02:48:46;22.30;51.50
18085;DHT22;9169;44.492;11.372;2023-08-06T02:51:15;22.30;51.50
18085;DHT22;9169;44.492;11.372;2023-08-06T02:53:44;22.30;51.80
18085;DHT22;9169;44.492;11.372;2023-08-06T02:56:17;22.30;51.80
18085;DHT22;9169;44.492;11.372;2023-08-06T02:59:07;22.30;51.80
18085;DHT22;9169;44.492;11.372;2023-08-06T03:02:11;22.30;51.70
18085;DHT22;9169;44.492;11.372;2023-08-06T03:05:00;22.30;51.80
18085;DHT22;9169;44.492;11.372;2023-08-06T03:07:33;22.30;51.80
18085;DHT22;9169;44.492;11.372;2023-08-06T03:10:11;22.30;51.80
18085;DHT22;9169;44.492;11.372;2023-08-06T03:12:42;22.40;51.80
18085;DHT22;9169;44.492;11.372;2023-08-06T03:15:12;22.40;51.80
18085;DHT22;9169;44.492;11.372;2023-08-06T03:17:42;22.40;51.70
18085;DHT22;9169;44.492;11.372;2023-08-06T03:20:12;22.40;51.60
18085;DHT22;9169;44.492;11.372;2023-08-06T03:22:41;22.40;51.60
18085;DHT22;9169;44.492;11.372;2023-08-06T03:25:10;22.40;51.60
18085;DHT22;9169;44.492;11.372;2023-08-06T03:27:42;22.40;51.50
18085;DHT22;9169;44.492;11.372;2023-08-06T03:30:14;22.40;51.50
18085;DHT22;9169;44.492;11.372;2023-08-06T03:32:43;22.40;51.40
18085;DHT22;9169;44.492;11.372;2023-08-06T03:35:12;22.40;51.40
18085;DHT22;9169;44.492;11.372;2023-08-06T03:37:40;22.40;51.30
18085;DHT22;9169;44.492;11.372;2023-08-06T03:40:10;22.40;51.20
18085;DHT22;9169;44.492;11.372;2023-08-06T03:42:39;22.40;51.20
18085;DHT22;9169;44.492;11.372;2023-08-06T03:45:08;22.40;51.10
18085;DHT22;9169;44.492;11.372;2023-08-06T03:47:40;22.50;51.20
18085;DHT22;9169;44.492;11.372;2023-08-06T03:50:09;22.50;51.30
18085;DHT22;9169;44.492;11.372;2023-08-06T03:52:38;22.50;51.30
18085;DHT22;9169;44.492;11.372;2023-08-06T03:55:07;22.50;51.40
18085;DHT22;9169;44.492;11.372;2023-08-06T03:57:36;22.50;51.40
18085;DHT22;9169;44.492;11.372;2023-08-06T04:00:07;22.50;51.30
18085;DHT22;9169;44.492;11.372;2023-08-06T04:02:43;22.50;51.20
18085;DHT22;9169;44.492;11.372;2023-08-06T04:05:13;22.50;51.20
18085;DHT22;9169;44.492;11.372;2023-08-06T04:07:42;22.50;51.10
18085;DHT22;9169;44.492;11.372;2023-08-06T04:10:11;22.50;51.10
18085;DHT22;9169;44.492;11.372;2023-08-06T04:12:40;22.50;51.00
18085;DHT22;9169;44.492;11.372;2023-08-06T04:15:09;22.50;51.00
18085;DHT22;9169;44.492;11.372;2023-08-06T04:17:37;22.50;51.00
18085;DHT22;9169;44.492;11.372;2023-08-06T04:20:08;22.60;51.00
18085;DHT22;9169;44.492;11.372;2023-08-06T04:22:37;22.50;50.80
18085;DHT22;9169;44.492;11.372;2023-08-06T04:25:07;22.60;50.80
18085;DHT22;9169;44.492;11.372;2023-08-06T04:27:35;22.60;50.90
18085;DHT22;9169;44.492;11.372;2023-08-06T04:30:10;22.60;50.90
18085;DHT22;9169;44.492;11.372;2023-08-06T04:32:40;22.60;50.90
18085;DHT22;9169;44.492;11.372;2023-08-06T04:35:11;22.60;50.90
18085;DHT22;9169;44.492;11.372;2023-08-06T04:37:40;22.60;50.90
18085;DHT22;9169;44.492;11.372;2023-08-06T04:40:11;22.60;50.70
18085;DHT22;9169;44.492;11.372;2023-08-06T04:42:40;22.60;50.70
18085;DHT22;9169;44.492;11.372;2023-08-06T04:45:09;22.60;50.70
18085;DHT22;9169;44.492;11.372;2023-08-06T04:47:38;22.60;50.60
18085;DHT22;9169;44.492;11.372;2023-08-06T04:50:07;22.60;50.60
18085;DHT22;9169;44.492;11.372;2023-08-06T04:52:37;22.60;50.70
18085;DHT22;9169;44.492;11.372;2023-08-06T04:55:06;22.70;50.80
18085;DHT22;9169;44.492;11.372;2023-08-06T04:57:35;22.70;50.70
18085;DHT22;9169;44.492;11.372;2023-08-06T05:00:04;22.80;50.90
18085;DHT22;9169;44.492;11.372;2023-08-06T05:02:33;22.70;50.90
18085;DHT22;9169;44.492;11.372;2023-08-06T05:05:05;22.80;50.80
18085;DHT22;9169;44.492;11.372;2023-08-06T05:07:34;22.80;50.70
18085;DHT22;9169;44.492;11.372;2023-08-06T05:10:05;22.80;50.60
18085;DHT22;9169;44.492;11.372;2023-08-06T05:12:34;22.80;50.50
18085;DHT22;9169;44.492;11.372;2023-08-06T05:15:03;22.80;50.40
18085;DHT22;9169;44.492;11.372;2023-08-06T05:17:32;22.80;50.50
18085;DHT22;9169;44.492;11.372;2023-08-06T05:20:01;22.80;50.50
18085;DHT22;9169;44.492;11.372;2023-08-06T05:22:30;22.90;50.60
18085;DHT22;9169;44.492;11.372;2023-08-06T05:24:58;22.90;50.60
18085;DHT22;9169;44.492;11.372;2023-08-06T05:27:28;22.90;50.50
18085;DHT22;9169;44.492;11.372;2023-08-06T05:29:57;22.90;50.60
18085;DHT22;9169;44.492;11.372;2023-08-06T05:32:26;22.90;50.60
18085;DHT22;9169;44.492;11.372;2023-08-06T05:34:55;22.90;50.70
18085;DHT22;9169;44.492;11.372;2023-08-06T05:37:24;22.90;50.70
18085;DHT22;9169;44.492;11.372;2023-08-06T05:39:52;22.90;50.70
18085;DHT22;9169;44.492;11.372;2023-08-06T05:42:21;22.90;50.60
18085;DHT22;9169;44.492;11.372;2023-08-06T05:44:51;22.90;50.60
18085;DHT22;9169;44.492;11.372;2023-08-06T05:47:20;23.00;50.80
18085;DHT22;9169;44.492;11.372;2023-08-06T05:49:48;23.00;50.70
18085;DHT22;9169;44.492;11.372;2023-08-06T05:52:17;23.00;50.70
18085;DHT22;9169;44.492;11.372;2023-08-06T05:54:45;23.10;50.70
18085;DHT22;9169;44.492;11.372;2023-08-06T05:57:14;23.10;50.60
18085;DHT22;9169;44.492;11.372;2023-08-06T05:59:43;23.10;51.10
18085;DHT22;9169;44.492;11.372;2023-08-06T06:02:13;23.20;50.60
18085;DHT22;9169;44.492;11.372;2023-08-06T06:04:42;23.20;50.40
18085;DHT22;9169;44.492;11.372;2023-08-06T06:07:10;23.30;50.40
18085;DHT22;9169;44.492;11.372;2023-08-06T06:09:39;23.30;50.40
18085;DHT22;9169;44.492;11.372;2023-08-06T06:12:08;23.40;50.60
18085;DHT22;9169;44.492;11.372;2023-08-06T06:14:36;23.40;50.50
18085;DHT22;9169;44.492;11.372;2023-08-06T06:17:05;23.50;50.50
18085;DHT22;9169;44.492;11.372;2023-08-06T06:19:35;23.50;50.50
18085;DHT22;9169;44.492;11.372;2023-08-06T06:22:04;23.60;50.40
18085;DHT22;9169;44.492;11.372;2023-08-06T06:24:33;23.60;50.30
18085;DHT22;9169;44.492;11.372;2023-08-06T06:27:01;23.70;50.30
18085;DHT22;9169;44.492;11.372;2023-08-06T06:29:30;23.70;50.10
18085;DHT22;9169;44.492;11.372;2023-08-06T06:31:58;23.70;49.90
18085;DHT22;9169;44.492;11.372;2023-08-06T06:34:27;23.80;49.90
18085;DHT22;9169;44.492;11.372;2023-08-06T06:36:57;23.80;49.70
18085;DHT22;9169;44.492;11.372;2023-08-06T06:39:26;23.80;49.70
18085;DHT22;9169;44.492;11.372;2023-08-06T06:41:54;23.90;49.70
18085;DHT22;9169;44.492;11.372;2023-08-06T06:44:31;23.90;49.70
18085;DHT22;9169;44.492;11.372;2023-08-06T06:47:00;23.90;49.60
18085;DHT22;9169;44.492;11.372;2023-08-06T06:49:28;24.00;49.70
18085;DHT22;9169;44.492;11.372;2023-08-06T06:51:58;24.00;49.50
18085;DHT22;9169;44.492;11.372;2023-08-06T06:54:27;24.00;49.50
18085;DHT22;9169;44.492;11.372;2023-08-06T06:56:57;24.00;49.30
18085;DHT22;9169;44.492;11.372;2023-08-06T06:59:25;24.00;49.50
18085;DHT22;9169;44.492;11.372;2023-08-06T07:01:54;24.10;49.70
18085;DHT22;9169;44.492;11.372;2023-08-06T07:04:23;24.10;50.20
18085;DHT22;9169;44.492;11.372;2023-08-06T07:06:51;24.10;49.40
18085;DHT22;9169;44.492;11.372;2023-08-06T07:09:21;24.20;49.50
18085;DHT22;9169;44.492;11.372;2023-08-06T07:11:50;24.20;49.30
18085;DHT22;9169;44.492;11.372;2023-08-06T07:14:19;24.20;49.10
18085;DHT22;9169;44.492;11.372;2023-08-06T07:16:47;24.20;48.90
18085;DHT22;9169;44.492;11.372;2023-08-06T07:19:16;24.20;49.00
18085;DHT22;9169;44.492;11.372;2023-08-06T07:21:45;24.30;49.10
18085;DHT22;9169;44.492;11.372;2023-08-06T07:24:14;24.40;49.10
18085;DHT22;9169;44.492;11.372;2023-08-06T07:26:44;24.40;49.10
18085;DHT22;9169;44.492;11.372;2023-08-06T07:29:12;24.50;48.80
18085;DHT22;9169;44.492;11.372;2023-08-06T07:31:41;24.50;48.60
18085;DHT22;9169;44.492;11.372;2023-08-06T07:34:09;24.60;48.60
18085;DHT22;9169;44.492;11.372;2023-08-06T07:36:38;24.60;48.30
18085;DHT22;9169;44.492;11.372;2023-08-06T07:39:07;24.60;48.30
18085;DHT22;9169;44.492;11.372;2023-08-06T07:41:35;24.70;48.20
18085;DHT22;9169;44.492;11.372;2023-08-06T07:44:06;24.70;48.30
18085;DHT22;9169;44.492;11.372;2023-08-06T07:46:34;24.80;48.30
18085;DHT22;9169;44.492;11.372;2023-08-06T07:49:03;24.80;48.20
18085;DHT22;9169;44.492;11.372;2023-08-06T07:51:32;24.90;48.30
18085;DHT22;9169;44.492;11.372;2023-08-06T07:54:00;24.90;48.30
18085;DHT22;9169;44.492;11.372;2023-08-06T07:56:29;24.90;48.10
18085;DHT22;9169;44.492;11.372;2023-08-06T07:58:58;25.00;48.10
18085;DHT22;9169;44.492;11.372;2023-08-06T08:01:28;25.00;48.10
18085;DHT22;9169;44.492;11.372;2023-08-06T08:03:56;25.10;48.00
18085;DHT22;9169;44.492;11.372;2023-08-06T08:06:25;25.10;47.90
18085;DHT22;9169;44.492;11.372;2023-08-06T08:08:54;25.10;47.90
18085;DHT22;9169;44.492;11.372;2023-08-06T08:11:22;25.20;48.10
18085;DHT22;9169;44.492;11.372;2023-08-06T08:13:51;25.30;48.20
18085;DHT22;9169;44.492;11.372;2023-08-06T08:16:20;25.30;48.40
18085;DHT22;9169;44.492;11.372;2023-08-06T08:18:50;25.30;48.50
18085;DHT22;9169;44.492;11.372;2023-08-06T08:21:18;25.40;48.50
18085;DHT22;9169;44.492;11.372;2023-08-06T08:23:47;25.40;48.70
18085;DHT22;9169;44.492;11.372;2023-08-06T08:26:16;25.40;48.80
18085;DHT22;9169;44.492;11.372;2023-08-06T08:28:44;25.50;49.00
18085;DHT22;9169;44.492;11.372;2023-08-06T08:31:13;25.50;48.70
18085;DHT22;9169;44.492;11.372;2023-08-06T08:33:42;25.50;48.80
18085;DHT22;9169;44.492;11.372;2023-08-06T08:36:12;25.60;48.90
18085;DHT22;9169;44.492;11.372;2023-08-06T08:38:42;25.60;48.60
18085;DHT22;9169;44.492;11.372;2023-08-06T08:41:11;25.70;48.60
18085;DHT22;9169;44.492;11.372;2023-08-06T08:43:40;25.70;48.60
18085;DHT22;9169;44.492;11.372;2023-08-06T08:46:11;25.80;48.60
18085;DHT22;9169;44.492;11.372;2023-08-06T08:48:42;25.80;48.40
18085;DHT22;9169;44.492;11.372;2023-08-06T08:51:13;25.80;48.40
18085;DHT22;9169;44.492;11.372;2023-08-06T08:53:43;25.80;48.30
18085;DHT22;9169;44.492;11.372;2023-08-06T08:56:13;25.90;48.20
18085;DHT22;9169;44.492;11.372;2023-08-06T08:58:42;25.90;48.10
18085;DHT22;9169;44.492;11.372;2023-08-06T09:01:11;25.90;48.20
18085;DHT22;9169;44.492;11.372;2023-08-06T09:03:41;26.00;48.00
18085;DHT22;9169;44.492;11.372;2023-08-06T09:06:13;26.00;47.90
18085;DHT22;9169;44.492;11.372;2023-08-06T09:08:56;26.00;47.60
18085;DHT22;9169;44.492;11.372;2023-08-06T09:11:32;26.00;47.30
18085;DHT22;9169;44.492;11.372;2023-08-06T09:14:07;26.00;47.40
18085;DHT22;9169;44.492;11.372;2023-08-06T09:16:35;26.00;47.00
18085;DHT22;9169;44.492;11.372;2023-08-06T09:19:07;26.10;46.30
18085;DHT22;9169;44.492;11.372;2023-08-06T09:21:39;26.10;45.80
18085;DHT22;9169;44.492;11.372;2023-08-06T09:24:08;26.10;45.90
18085;DHT22;9169;44.492;11.372;2023-08-06T09:26:38;26.20;46.20
18085;DHT22;9169;44.492;11.372;2023-08-06T09:29:08;26.20;46.40
18085;DHT22;9169;44.492;11.372;2023-08-06T09:31:42;26.30;46.30
18085;DHT22;9169;44.492;11.372;2023-08-06T09:34:12;26.40;46.00
18085;DHT22;9169;44.492;11.372;2023-08-06T09:36:46;26.40;46.20
18085;DHT22;9169;44.492;11.372;2023-08-06T09:39:16;26.50;46.40
18085;DHT22;9169;44.492;11.372;2023-08-06T09:41:46;26.60;46.60
18085;DHT22;9169;44.492;11.372;2023-08-06T09:44:17;26.70;46.80
18085;DHT22;9169;44.492;11.372;2023-08-06T09:46:47;26.80;47.00
18085;DHT22;9169;44.492;11.372;2023-08-06T09:49:18;26.90;46.30
18085;DHT22;9169;44.492;11.372;2023-08-06T09:51:51;27.00;46.00
18085;DHT22;9169;44.492;11.372;2023-08-06T09:54:24;27.20;46.00
18085;DHT22;9169;44.492;11.372;2023-08-06T09:56:54;27.30;45.50
18085;DHT22;9169;44.492;11.372;2023-08-06T09:59:23;27.40;45.80
18085;DHT22;9169;44.492;11.372;2023-08-06T10:01:54;27.60;46.00
18085;DHT22;9169;44.492;11.372;2023-08-06T10:04:23;27.70;45.70
18085;DHT22;9169;44.492;11.372;2023-08-06T10:06:55;27.90;45.80
18085;DHT22;9169;44.492;11.372;2023-08-06T10:09:24;28.10;45.90
18085;DHT22;9169;44.492;11.372;2023-08-06T10:11:54;28.30;46.40
18085;DHT22;9169;44.492;11.372;2023-08-06T10:14:26;28.50;46.10
18085;DHT22;9169;44.492;11.372;2023-08-06T10:16:57;28.60;45.60
18085;DHT22;9169;44.492;11.372;2023-08-06T10:19:27;28.90;45.40
18085;DHT22;9169;44.492;11.372;2023-08-06T10:22:11;29.10;45.00
18085;DHT22;9169;44.492;11.372;2023-08-06T10:24:51;29.50;45.00
18085;DHT22;9169;44.492;11.372;2023-08-06T10:27:23;30.10;45.00
18085;DHT22;9169;44.492;11.372;2023-08-06T10:29:56;30.90;44.70
18085;DHT22;9169;44.492;11.372;2023-08-06T10:32:49;31.90;44.00
18085;DHT22;9169;44.492;11.372;2023-08-06T10:35:36;32.90;42.60
18085;DHT22;9169;44.492;11.372;2023-08-06T10:38:09;34.00;41.80
18085;DHT22;9169;44.492;11.372;2023-08-06T10:40:39;34.90;41.20
18085;DHT22;9169;44.492;11.372;2023-08-06T10:43:25;35.70;39.90
18085;DHT22;9169;44.492;11.372;2023-08-06T10:45:54;36.40;38.50
18085;DHT22;9169;44.492;11.372;2023-08-06T10:48:30;36.90;37.50
18085;DHT22;9169;44.492;11.372;2023-08-06T10:51:00;37.20;36.50
18085;DHT22;9169;44.492;11.372;2023-08-06T10:53:30;37.50;35.20
18085;DHT22;9169;44.492;11.372;2023-08-06T10:56:00;37.80;35.50
18085;DHT22;9169;44.492;11.372;2023-08-06T10:58:32;38.10;35.40
18085;DHT22;9169;44.492;11.372;2023-08-06T11:01:01;38.50;34.30
18085;DHT22;9169;44.492;11.372;2023-08-06T11:03:31;38.70;33.50
18085;DHT22;9169;44.492;11.372;2023-08-06T11:06:01;38.80;33.50
18085;DHT22;9169;44.492;11.372;2023-08-06T11:08:38;39.00;33.80
18085;DHT22;9169;44.492;11.372;2023-08-06T11:11:10;39.30;32.60
18085;DHT22;9169;44.492;11.372;2023-08-06T11:13:40;39.60;32.80
18085;DHT22;9169;44.492;11.372;2023-08-06T11:16:09;40.00;32.90
18085;DHT22;9169;44.492;11.372;2023-08-06T11:18:39;40.30;32.10
18085;DHT22;9169;44.492;11.372;2023-08-06T11:21:08;40.50;31.80
18085;DHT22;9169;44.492;11.372;2023-08-06T11:23:40;40.90;31.40
18085;DHT22;9169;44.492;11.372;2023-08-06T11:26:09;41.10;31.10
18085;DHT22;9169;44.492;11.372;2023-08-06T11:28:37;41.00;28.90
18085;DHT22;9169;44.492;11.372;2023-08-06T11:31:06;40.70;29.20
18085;DHT22;9169;44.492;11.372;2023-08-06T11:33:35;40.60;29.40
18085;DHT22;9169;44.492;11.372;2023-08-06T11:36:04;40.70;29.00
18085;DHT22;9169;44.492;11.372;2023-08-06T11:38:33;40.90;29.20
18085;DHT22;9169;44.492;11.372;2023-08-06T11:41:03;41.10;28.80
18085;DHT22;9169;44.492;11.372;2023-08-06T11:43:31;41.30;28.60
18085;DHT22;9169;44.492;11.372;2023-08-06T11:46:00;41.50;29.00
18085;DHT22;9169;44.492;11.372;2023-08-06T11:48:29;41.70;28.70
18085;DHT22;9169;44.492;11.372;2023-08-06T11:50:58;41.90;28.50
18085;DHT22;9169;44.492;11.372;2023-08-06T11:53:27;42.10;28.50
18085;DHT22;9169;44.492;11.372;2023-08-06T11:55:57;42.40;28.90
18085;DHT22;9169;44.492;11.372;2023-08-06T11:58:29;42.70;28.80
18085;DHT22;9169;44.492;11.372;2023-08-06T12:00:58;43.00;28.20
18085;DHT22;9169;44.492;11.372;2023-08-06T12:03:26;43.20;28.30
18085;DHT22;9169;44.492;11.372;2023-08-06T12:05:57;43.50;28.20
18085;DHT22;9169;44.492;11.372;2023-08-06T12:08:26;43.60;27.80
18085;DHT22;9169;44.492;11.372;2023-08-06T12:10:55;43.80;27.60
18085;DHT22;9169;44.492;11.372;2023-08-06T12:13:24;43.90;26.70
18085;DHT22;9169;44.492;11.372;2023-08-06T12:15:55;43.90;26.60
18085;DHT22;9169;44.492;11.372;2023-08-06T12:18:24;43.90;25.70
18085;DHT22;9169;44.492;11.372;2023-08-06T12:20:53;43.80;25.90
18085;DHT22;9169;44.492;11.372;2023-08-06T12:23:22;43.60;25.80
18085;DHT22;9169;44.492;11.372;2023-08-06T12:25:50;43.80;25.70
18085;DHT22;9169;44.492;11.372;2023-08-06T12:28:19;43.90;25.40
18085;DHT22;9169;44.492;11.372;2023-08-06T12:30:50;44.00;25.20
18085;DHT22;9169;44.492;11.372;2023-08-06T12:33:23;44.10;25.30
18085;DHT22;9169;44.492;11.372;2023-08-06T12:35:52;44.30;24.60
18085;DHT22;9169;44.492;11.372;2023-08-06T12:38:22;44.40;24.20
18085;DHT22;9169;44.492;11.372;2023-08-06T12:40:51;44.30;24.10
18085;DHT22;9169;44.492;11.372;2023-08-06T12:43:19;44.30;24.20
18085;DHT22;9169;44.492;11.372;2023-08-06T12:45:48;44.30;24.60
18085;DHT22;9169;44.492;11.372;2023-08-06T12:48:17;44.40;24.80
18085;DHT22;9169;44.492;11.372;2023-08-06T12:50:48;44.70;24.80
18085;DHT22;9169;44.492;11.372;2023-08-06T12:53:16;44.90;24.40
18085;DHT22;9169;44.492;11.372;2023-08-06T12:55:48;44.90;23.90
18085;DHT22;9169;44.492;11.372;2023-08-06T12:58:16;44.90;24.00
18085;DHT22;9169;44.492;11.372;2023-08-06T13:00:45;45.00;23.70
18085;DHT22;9169;44.492;11.372;2023-08-06T13:03:14;45.10;24.10
18085;DHT22;9169;44.492;11.372;2023-08-06T13:05:43;45.10;24.00
18085;DHT22;9169;44.492;11.372;2023-08-06T13:08:13;45.30;24.20
18085;DHT22;9169;44.492;11.372;2023-08-06T13:10:42;45.50;23.60
18085;DHT22;9169;44.492;11.372;2023-08-06T13:13:11;45.50;23.10
18085;DHT22;9169;44.492;11.372;2023-08-06T13:15:39;45.50;23.20
18085;DHT22;9169;44.492;11.372;2023-08-06T13:18:09;45.50;23.00
18085;DHT22;9169;44.492;11.372;2023-08-06T13:20:38;45.50;22.70
18085;DHT22;9169;44.492;11.372;2023-08-06T13:23:08;45.40;23.00
18085;DHT22;9169;44.492;11.372;2023-08-06T13:25:38;45.50;22.80
18085;DHT22;9169;44.492;11.372;2023-08-06T13:28:07;45.30;22.00
18085;DHT22;9169;44.492;11.372;2023-08-06T13:30:36;45.00;22.40
18085;DHT22;9169;44.492;11.372;2023-08-06T13:33:09;44.90;23.10
18085;DHT22;9169;44.492;11.372;2023-08-06T13:35:38;44.90;22.30
18085;DHT22;9169;44.492;11.372;2023-08-06T13:38:06;44.90;22.20
18085;DHT22;9169;44.492;11.372;2023-08-06T13:40:35;44.80;22.10
18085;DHT22;9169;44.492;11.372;2023-08-06T13:43:05;44.60;22.80
18085;DHT22;9169;44.492;11.372;2023-08-06T13:45:33;44.60;22.70
18085;DHT22;9169;44.492;11.372;2023-08-06T13:48:02;44.90;23.20
18085;DHT22;9169;44.492;11.372;2023-08-06T13:50:32;45.10;23.00
18085;DHT22;9169;44.492;11.372;2023-08-06T13:53:00;45.30;22.80
18085;DHT22;9169;44.492;11.372;2023-08-06T13:55:29;45.50;22.80
18085;DHT22;9169;44.492;11.372;2023-08-06T13:57:58;45.70;22.20
18085;DHT22;9169;44.492;11.372;2023-08-06T14:00:28;45.80;22.30
18085;DHT22;9169;44.492;11.372;2023-08-06T14:02:57;45.70;22.10
18085;DHT22;9169;44.492;11.372;2023-08-06T14:05:26;45.50;21.90
18085;DHT22;9169;44.492;11.372;2023-08-06T14:07:55;45.30;21.90
18085;DHT22;9169;44.492;11.372;2023-08-06T14:10:23;45.30;21.90
18085;DHT22;9169;44.492;11.372;2023-08-06T14:12:52;45.20;21.70
18085;DHT22;9169;44.492;11.372;2023-08-06T14:15:23;44.90;21.40
18085;DHT22;9169;44.492;11.372;2023-08-06T14:17:53;44.80;22.20
18085;DHT22;9169;44.492;11.372;2023-08-06T14:20:22;44.80;22.00
18085;DHT22;9169;44.492;11.372;2023-08-06T14:22:50;44.70;21.50
18085;DHT22;9169;44.492;11.372;2023-08-06T14:25:19;44.30;21.50
18085;DHT22;9169;44.492;11.372;2023-08-06T14:27:48;43.50;21.30
18085;DHT22;9169;44.492;11.372;2023-08-06T14:30:16;42.80;22.10
18085;DHT22;9169;44.492;11.372;2023-08-06T14:32:45;42.10;22.50
18085;DHT22;9169;44.492;11.372;2023-08-06T14:35:15;41.50;22.60
18085;DHT22;9169;44.492;11.372;2023-08-06T14:37:44;40.90;22.90
18085;DHT22;9169;44.492;11.372;2023-08-06T14:40:13;40.30;23.30
18085;DHT22;9169;44.492;11.372;2023-08-06T14:42:41;39.90;23.50
18085;DHT22;9169;44.492;11.372;2023-08-06T14:45:10;39.40;23.60
18085;DHT22;9169;44.492;11.372;2023-08-06T14:47:39;39.00;23.70
18085;DHT22;9169;44.492;11.372;2023-08-06T14:50:12;38.80;24.10
18085;DHT22;9169;44.492;11.372;2023-08-06T14:52:46;38.40;23.90
18085;DHT22;9169;44.492;11.372;2023-08-06T14:55:22;38.00;24.00
18085;DHT22;9169;44.492;11.372;2023-08-06T14:57:51;37.70;24.10
18085;DHT22;9169;44.492;11.372;2023-08-06T15:00:20;37.40;24.30
18085;DHT22;9169;44.492;11.372;2023-08-06T15:02:57;37.10;24.30
18085;DHT22;9169;44.492;11.372;2023-08-06T15:05:25;36.90;24.60
18085;DHT22;9169;44.492;11.372;2023-08-06T15:07:55;36.70;24.70
18085;DHT22;9169;44.492;11.372;2023-08-06T15:10:24;36.50;24.80
18085;DHT22;9169;44.492;11.372;2023-08-06T15:12:53;36.30;25.00
18085;DHT22;9169;44.492;11.372;2023-08-06T15:15:22;36.10;25.30
18085;DHT22;9169;44.492;11.372;2023-08-06T15:17:52;36.00;25.20
18085;DHT22;9169;44.492;11.372;2023-08-06T15:20:22;35.80;25.00
18085;DHT22;9169;44.492;11.372;2023-08-06T15:22:51;35.70;25.20
18085;DHT22;9169;44.492;11.372;2023-08-06T15:25:21;35.60;25.20
18085;DHT22;9169;44.492;11.372;2023-08-06T15:27:50;35.50;25.50
18085;DHT22;9169;44.492;11.372;2023-08-06T15:30:18;35.40;25.50
18085;DHT22;9169;44.492;11.372;2023-08-06T15:32:48;35.30;25.60
18085;DHT22;9169;44.492;11.372;2023-08-06T15:35:17;35.30;25.80
18085;DHT22;9169;44.492;11.372;2023-08-06T15:37:46;35.20;25.80
18085;DHT22;9169;44.492;11.372;2023-08-06T15:40:15;35.10;25.90
18085;DHT22;9169;44.492;11.372;2023-08-06T15:42:45;35.30;26.10
18085;DHT22;9169;44.492;11.372;2023-08-06T15:45:14;35.70;26.40
18085;DHT22;9169;44.492;11.372;2023-08-06T15:47:42;36.00;25.70